• Join FlightAware (Why Join?)
  • Login
  • US Flag 
02:49PM EST


 

Airport Tracker/Info


-or-


 

Live Flight TrackerFlight Track Log ✈ FLG3709 ✈ 07-Apr-2013 ✈ KPIT - KCVG

Flight Track Log - Related Links

Times and Time Zones

All times are in EDT time to prevent confusion due to time zone crossing. See the FLG3709 flight status page for this flight to view local times or setup timezone preferences in your user account.

Time Position Orientation Groundspeed Altitude Reporting Facility
EDT Latitude Longitude Course Direction KTS MPH feet Rate Location/Type
07:14AM 40.5092 -80.5258 265° West 236 272 10,000  Level Cleveland Center
07:15AM 40.5069 -80.6214 268° West 243 280 11,600 1,500 Climbing Cleveland Center
07:16AM 40.5047 -80.7333 269° West 279 321 13,100 1,560 Climbing Cleveland Center
07:17AM 40.4667 -80.8543 270° West  Level FlightAware Approximate
07:17AM 40.5006 -80.8425 267° West 303 349 14,800  Level Cleveland Center
07:18AM 40.4667 -80.9609 270° West  Level FlightAware Approximate
07:19AM 40.4667 -81.0676 270° West  Level FlightAware Approximate
07:19AM 40.4944 -81.0275 268° West 328 377 17,000  Level Indianapolis Center
07:20AM 40.4642 -81.1741 265° West  Level FlightAware Approximate
07:20AM 40.4914 -81.1506 268° West 335 386 18,500  Level Indianapolis Center
07:21AM 40.4853 -81.2953 267° West 336 387 20,100 1,260 Climbing Indianapolis Center
07:22AM 40.4828 -81.4000 268° West 339 390 21,100 900 Climbing Indianapolis Center
07:23AM 40.4781 -81.5472 268° West 342 394 22,000 420 Climbing Indianapolis Center
07:24AM 40.4681 -81.6764 264° West 352 405 22,000  Level Indianapolis Center
07:25AM 40.4214 -81.7964 243° Southwest 361 415 22,000  Level Indianapolis Center
07:26AM 40.3742 -81.9183 243° Southwest 369 425 22,000  Level Indianapolis Center
07:27AM 40.3250 -82.0369 241° Southwest 368 423 22,000  Level Indianapolis Center
07:28AM 40.2767 -82.1572 242° Southwest 369 425 22,000  Level Indianapolis Center
07:29AM 40.2331 -82.2672 243° Southwest 369 425 22,000  Level Indianapolis Center
07:30AM 40.1853 -82.3856 242° Southwest 367 422 22,000  Level Indianapolis Center
07:31AM 40.1372 -82.5047 242° Southwest 367 422 22,000  Level Indianapolis Center
07:32AM 40.0883 -82.6250 242° Southwest 368 423 22,000 -60 Level Indianapolis Center
07:33AM 40.0392 -82.7442 242° Southwest 369 425 21,900 -600 Descending Indianapolis Center
07:34AM 39.9903 -82.8628 242° Southwest 366 421 20,900 -900 Descending Indianapolis Center
07:35AM 39.9406 -82.9817 241° Southwest 370 426 20,100 -660 Descending Indianapolis Center
07:36AM 39.8928 -83.0981 242° Southwest 363 418 19,600 -540 Descending Indianapolis Center
07:37AM 39.8453 -83.2117 241° Southwest 355 409 19,100 -540 Descending Indianapolis Center
07:38AM 39.7981 -83.3242 241° Southwest 350 403 18,600 -660 Descending Indianapolis Center
07:39AM 39.7500 -83.4381 241° Southwest 348 400 17,800 -1,020 Descending Indianapolis Center
07:40AM 39.7019 -83.5533 242° Southwest 352 405 16,600 -1,260 Descending Indianapolis Center
07:41AM 39.6564 -83.6611 241° Southwest 339 390 15,300 -1,320 Descending Indianapolis Center
07:42AM 39.6139 -83.7628 242° Southwest 321 369 14,000 -1,320 Descending Indianapolis Center
07:43AM 39.5719 -83.8603 241° Southwest 308 354 12,700 -1,380 Descending Indianapolis Center
07:44AM 39.5308 -83.9561 241° Southwest 303 349 11,300 -900 Descending Indianapolis Center
07:45AM 39.4900 -84.0514 241° Southwest 301 346 10,900 -180 Descending Indianapolis Center
07:46AM 39.4392 -84.1394 233° Southwest 302 348 11,000 -300 Climbing Indianapolis Center
07:47AM 39.4064 -84.2258 244° Southwest 271 312 10,400 -900 Descending Indianapolis Center
07:48AM 39.3783 -84.3022 245° Southwest 239 275 9,200 -1,440 Descending Indianapolis Center
07:50AM 39.3497 -84.3783 244° Southwest 233 268 7,500 -1,560 Descending Indianapolis Center
07:51AM 39.3164 -84.4497 239° Southwest 231 266 6,100 -840 Descending Indianapolis Center
07:52AM 39.2742 -84.5097 228° Southwest 224 258 5,900 -720 Descending Indianapolis Center
07:53AM 39.2258 -84.5781 228° Southwest 220 253 4,700 -1,020 Descending Indianapolis Center
07:54AM 39.1892 -84.6267 226° Southwest 197 227 3,900 -900 Descending Indianapolis Center
07:54AM 39.1667 -84.6500 219° Southwest 155 178 3,200 -1,020 Descending Cincinnati TRACON
07:55AM 39.1333 -84.6667 201° Southwest 145 167 2,300 -900 Descending Cincinnati TRACON
07:56AM 39.1000 -84.6667 180° South 132 152 1,600 -720 Descending Cincinnati TRACON
07:58AM 39.0488 -84.6678 38° Northeast  Level Estimated